sensor_id;sensor_type;location;lat;lon;timestamp;P1;durP1;ratioP1;P2;durP2;ratioP2
75912;SDS011;64592;52.168;21.040;2024-01-16T00:04:04;0.95;;;0.47;;
75912;SDS011;64592;52.168;21.040;2024-01-16T00:09:06;1.63;;;1.10;;
75912;SDS011;64592;52.168;21.040;2024-01-16T00:14:08;2.10;;;0.98;;
75912;SDS011;64592;52.168;21.040;2024-01-16T00:19:11;4.25;;;1.48;;
75912;SDS011;64592;52.168;21.040;2024-01-16T00:24:13;1.52;;;1.00;;
75912;SDS011;64592;52.168;21.040;2024-01-16T00:34:18;1.52;;;1.05;;
75912;SDS011;64592;52.168;21.040;2024-01-16T00:39:19;2.40;;;1.42;;
75912;SDS011;64592;52.168;21.040;2024-01-16T00:44:21;2.72;;;1.70;;
75912;SDS011;64592;52.168;21.040;2024-01-16T00:49:25;1.77;;;1.15;;
75912;SDS011;64592;52.168;21.040;2024-01-16T00:54:26;3.97;;;1.40;;
75912;SDS011;64592;52.168;21.040;2024-01-16T01:04:32;2.08;;;1.00;;
75912;SDS011;64592;52.168;21.040;2024-01-16T01:09:34;0.95;;;0.73;;
75912;SDS011;64592;52.168;21.040;2024-01-16T01:14:35;2.00;;;1.00;;
75912;SDS011;64592;52.168;21.040;2024-01-16T01:24:40;1.80;;;1.30;;
75912;SDS011;64592;52.168;21.040;2024-01-16T01:29:41;1.65;;;1.27;;
75912;SDS011;64592;52.168;21.040;2024-01-16T01:34:44;2.58;;;1.17;;
75912;SDS011;64592;52.168;21.040;2024-01-16T01:39:46;2.45;;;1.35;;
75912;SDS011;64592;52.168;21.040;2024-01-16T01:44:48;3.50;;;2.00;;
75912;SDS011;64592;52.168;21.040;2024-01-16T01:49:51;1.92;;;1.40;;
75912;SDS011;64592;52.168;21.040;2024-01-16T01:54:53;2.28;;;1.10;;
75912;SDS011;64592;52.168;21.040;2024-01-16T02:04:57;4.38;;;1.63;;
75912;SDS011;64592;52.168;21.040;2024-01-16T02:09:59;1.65;;;1.17;;
75912;SDS011;64592;52.168;21.040;2024-01-16T02:15:01;1.67;;;1.05;;
75912;SDS011;64592;52.168;21.040;2024-01-16T02:20:05;4.03;;;1.50;;
75912;SDS011;64592;52.168;21.040;2024-01-16T02:25:09;5.53;;;1.50;;
75912;SDS011;64592;52.168;21.040;2024-01-16T02:30:11;2.05;;;1.02;;
75912;SDS011;64592;52.168;21.040;2024-01-16T02:35:13;2.28;;;1.55;;
75912;SDS011;64592;52.168;21.040;2024-01-16T02:40:16;4.45;;;1.63;;
75912;SDS011;64592;52.168;21.040;2024-01-16T02:45:18;1.50;;;1.20;;
75912;SDS011;64592;52.168;21.040;2024-01-16T02:50:21;2.95;;;1.80;;
75912;SDS011;64592;52.168;21.040;2024-01-16T03:00:26;2.35;;;1.80;;
75912;SDS011;64592;52.168;21.040;2024-01-16T03:10:30;2.95;;;1.50;;
75912;SDS011;64592;52.168;21.040;2024-01-16T03:15:32;1.73;;;1.30;;
75912;SDS011;64592;52.168;21.040;2024-01-16T03:20:34;1.65;;;1.10;;
75912;SDS011;64592;52.168;21.040;2024-01-16T03:25:36;1.10;;;1.00;;
75912;SDS011;64592;52.168;21.040;2024-01-16T03:30:38;1.38;;;1.05;;
75912;SDS011;64592;52.168;21.040;2024-01-16T03:35:40;2.72;;;1.20;;
75912;SDS011;64592;52.168;21.040;2024-01-16T03:40:43;4.15;;;1.38;;
75912;SDS011;64592;52.168;21.040;2024-01-16T03:45:45;2.75;;;1.45;;
75912;SDS011;64592;52.168;21.040;2024-01-16T03:50:46;2.42;;;1.17;;
75912;SDS011;64592;52.168;21.040;2024-01-16T03:55:49;1.73;;;1.13;;
75912;SDS011;64592;52.168;21.040;2024-01-16T04:00:51;2.58;;;1.08;;
75912;SDS011;64592;52.168;21.040;2024-01-16T04:10:56;1.17;;;1.00;;
75912;SDS011;64592;52.168;21.040;2024-01-16T04:15:57;1.10;;;1.05;;
75912;SDS011;64592;52.168;21.040;2024-01-16T04:20:59;1.35;;;1.17;;
75912;SDS011;64592;52.168;21.040;2024-01-16T04:26:02;1.42;;;0.88;;
75912;SDS011;64592;52.168;21.040;2024-01-16T04:31:04;2.92;;;1.20;;
75912;SDS011;64592;52.168;21.040;2024-01-16T04:41:09;1.05;;;0.95;;
75912;SDS011;64592;52.168;21.040;2024-01-16T04:46:11;1.80;;;1.40;;
75912;SDS011;64592;52.168;21.040;2024-01-16T04:51:12;8.38;;;2.03;;
75912;SDS011;64592;52.168;21.040;2024-01-16T04:56:15;2.58;;;1.73;;
75912;SDS011;64592;52.168;21.040;2024-01-16T05:01:17;4.10;;;1.80;;
75912;SDS011;64592;52.168;21.040;2024-01-16T05:06:18;3.15;;;1.83;;
75912;SDS011;64592;52.168;21.040;2024-01-16T05:11:21;1.90;;;1.70;;
75912;SDS011;64592;52.168;21.040;2024-01-16T05:16:23;1.52;;;1.40;;
75912;SDS011;64592;52.168;21.040;2024-01-16T05:21:25;1.70;;;1.35;;
75912;SDS011;64592;52.168;21.040;2024-01-16T05:26:28;4.65;;;2.20;;
75912;SDS011;64592;52.168;21.040;2024-01-16T05:31:30;4.00;;;1.92;;
75912;SDS011;64592;52.168;21.040;2024-01-16T05:36:31;1.95;;;1.02;;
75912;SDS011;64592;52.168;21.040;2024-01-16T05:41:34;2.90;;;1.08;;
75912;SDS011;64592;52.168;21.040;2024-01-16T05:46:37;3.33;;;2.03;;
75912;SDS011;64592;52.168;21.040;2024-01-16T05:51:38;3.72;;;2.45;;
75912;SDS011;64592;52.168;21.040;2024-01-16T05:56:41;2.00;;;1.65;;
75912;SDS011;64592;52.168;21.040;2024-01-16T06:01:43;2.72;;;1.58;;
75912;SDS011;64592;52.168;21.040;2024-01-16T06:06:44;4.28;;;1.92;;
75912;SDS011;64592;52.168;21.040;2024-01-16T06:11:50;2.28;;;1.25;;
75912;SDS011;64592;52.168;21.040;2024-01-16T06:16:51;2.60;;;1.83;;
75912;SDS011;64592;52.168;21.040;2024-01-16T06:21:53;1.83;;;1.08;;
75912;SDS011;64592;52.168;21.040;2024-01-16T06:26:56;5.38;;;2.35;;
75912;SDS011;64592;52.168;21.040;2024-01-16T06:31:58;4.47;;;2.30;;
75912;SDS011;64592;52.168;21.040;2024-01-16T06:37:00;1.90;;;1.10;;
75912;SDS011;64592;52.168;21.040;2024-01-16T06:42:03;3.63;;;1.90;;
75912;SDS011;64592;52.168;21.040;2024-01-16T06:47:05;3.42;;;1.42;;
75912;SDS011;64592;52.168;21.040;2024-01-16T06:52:07;4.22;;;1.52;;
75912;SDS011;64592;52.168;21.040;2024-01-16T06:57:10;1.02;;;0.85;;
75912;SDS011;64592;52.168;21.040;2024-01-16T07:02:12;7.78;;;2.10;;
75912;SDS011;64592;52.168;21.040;2024-01-16T07:07:13;1.58;;;1.48;;
75912;SDS011;64592;52.168;21.040;2024-01-16T07:12:17;3.92;;;1.98;;
75912;SDS011;64592;52.168;21.040;2024-01-16T07:17:19;2.15;;;1.70;;
75912;SDS011;64592;52.168;21.040;2024-01-16T07:22:20;4.40;;;1.55;;
75912;SDS011;64592;52.168;21.040;2024-01-16T07:27:23;3.33;;;1.80;;
75912;SDS011;64592;52.168;21.040;2024-01-16T07:32:25;3.17;;;1.23;;
75912;SDS011;64592;52.168;21.040;2024-01-16T07:37:27;4.60;;;1.52;;
75912;SDS011;64592;52.168;21.040;2024-01-16T07:42:30;2.20;;;1.85;;
75912;SDS011;64592;52.168;21.040;2024-01-16T07:47:34;2.40;;;1.10;;
75912;SDS011;64592;52.168;21.040;2024-01-16T07:52:36;0.80;;;0.80;;
75912;SDS011;64592;52.168;21.040;2024-01-16T07:57:39;3.35;;;1.27;;
75912;SDS011;64592;52.168;21.040;2024-01-16T08:02:41;2.00;;;1.00;;
75912;SDS011;64592;52.168;21.040;2024-01-16T08:07:42;2.28;;;0.88;;
75912;SDS011;64592;52.168;21.040;2024-01-16T08:12:45;1.27;;;0.95;;
75912;SDS011;64592;52.168;21.040;2024-01-16T08:17:47;2.50;;;1.23;;
75912;SDS011;64592;52.168;21.040;2024-01-16T08:22:49;0.30;;;0.30;;
75912;SDS011;64592;52.168;21.040;2024-01-16T08:27:52;2.55;;;1.10;;
75912;SDS011;64592;52.168;21.040;2024-01-16T08:32:55;0.13;;;0.13;;
75912;SDS011;64592;52.168;21.040;2024-01-16T08:37:56;0.77;;;0.77;;
75912;SDS011;64592;52.168;21.040;2024-01-16T08:42:59;0.70;;;0.70;;
75912;SDS011;64592;52.168;21.040;2024-01-16T08:48:01;2.33;;;0.90;;
75912;SDS011;64592;52.168;21.040;2024-01-16T08:53:03;2.85;;;1.40;;
75912;SDS011;64592;52.168;21.040;2024-01-16T08:58:06;0.40;;;0.38;;
75912;SDS011;64592;52.168;21.040;2024-01-16T09:03:07;2.00;;;0.98;;
75912;SDS011;64592;52.168;21.040;2024-01-16T09:08:09;2.70;;;1.95;;
75912;SDS011;64592;52.168;21.040;2024-01-16T09:13:12;1.80;;;1.02;;
75912;SDS011;64592;52.168;21.040;2024-01-16T09:18:14;1.73;;;1.35;;
75912;SDS011;64592;52.168;21.040;2024-01-16T09:23:15;1.90;;;1.02;;
75912;SDS011;64592;52.168;21.040;2024-01-16T09:28:18;1.33;;;1.23;;
75912;SDS011;64592;52.168;21.040;2024-01-16T09:33:20;2.55;;;1.35;;
75912;SDS011;64592;52.168;21.040;2024-01-16T09:38:22;1.15;;;1.02;;
75912;SDS011;64592;52.168;21.040;2024-01-16T09:43:26;4.07;;;1.77;;
75912;SDS011;64592;52.168;21.040;2024-01-16T09:48:28;1.63;;;1.13;;
75912;SDS011;64592;52.168;21.040;2024-01-16T09:53:31;2.42;;;1.67;;
75912;SDS011;64592;52.168;21.040;2024-01-16T09:58:34;2.05;;;1.35;;
75912;SDS011;64592;52.168;21.040;2024-01-16T10:03:38;1.05;;;0.95;;
75912;SDS011;64592;52.168;21.040;2024-01-16T10:08:42;0.70;;;0.70;;
75912;SDS011;64592;52.168;21.040;2024-01-16T10:13:45;1.98;;;1.02;;
75912;SDS011;64592;52.168;21.040;2024-01-16T10:18:47;1.08;;;0.98;;
75912;SDS011;64592;52.168;21.040;2024-01-16T10:23:50;2.15;;;1.17;;
75912;SDS011;64592;52.168;21.040;2024-01-16T10:28:53;3.92;;;1.33;;
75912;SDS011;64592;52.168;21.040;2024-01-16T10:34:05;2.20;;;1.20;;
75912;SDS011;64592;52.168;21.040;2024-01-16T10:39:20;4.05;;;1.70;;
75912;SDS011;64592;52.168;21.040;2024-01-16T10:44:23;2.72;;;1.52;;
75912;SDS011;64592;52.168;21.040;2024-01-16T10:49:25;3.20;;;2.90;;
75912;SDS011;64592;52.168;21.040;2024-01-16T10:54:26;1.38;;;1.23;;
75912;SDS011;64592;52.168;21.040;2024-01-16T10:59:31;5.68;;;2.75;;
75912;SDS011;64592;52.168;21.040;2024-01-16T11:04:37;4.70;;;2.60;;
75912;SDS011;64592;52.168;21.040;2024-01-16T11:09:39;1.85;;;1.38;;
75912;SDS011;64592;52.168;21.040;2024-01-16T11:19:45;1.80;;;1.23;;
75912;SDS011;64592;52.168;21.040;2024-01-16T11:30:15;4.07;;;2.00;;
75912;SDS011;64592;52.168;21.040;2024-01-16T11:35:31;3.50;;;1.95;;
75912;SDS011;64592;52.168;21.040;2024-01-16T11:40:34;4.43;;;2.00;;
75912;SDS011;64592;52.168;21.040;2024-01-16T11:45:49;5.68;;;2.45;;
75912;SDS011;64592;52.168;21.040;2024-01-16T11:50:54;1.00;;;0.90;;
75912;SDS011;64592;52.168;21.040;2024-01-16T11:55:58;2.90;;;1.75;;
75912;SDS011;64592;52.168;21.040;2024-01-16T12:01:25;1.60;;;1.33;;
75912;SDS011;64592;52.168;21.040;2024-01-16T12:06:28;4.00;;;1.52;;
75912;SDS011;64592;52.168;21.040;2024-01-16T12:11:29;4.40;;;2.17;;
75912;SDS011;64592;52.168;21.040;2024-01-16T12:16:32;1.35;;;1.25;;
75912;SDS011;64592;52.168;21.040;2024-01-16T12:21:34;8.75;;;2.17;;
75912;SDS011;64592;52.168;21.040;2024-01-16T12:26:40;5.03;;;2.30;;
75912;SDS011;64592;52.168;21.040;2024-01-16T12:31:43;4.20;;;1.00;;
75912;SDS011;64592;52.168;21.040;2024-01-16T12:36:45;5.85;;;2.03;;
75912;SDS011;64592;52.168;21.040;2024-01-16T12:41:47;7.35;;;2.55;;
75912;SDS011;64592;52.168;21.040;2024-01-16T12:46:54;5.32;;;2.50;;
75912;SDS011;64592;52.168;21.040;2024-01-16T12:57:18;3.47;;;1.65;;
75912;SDS011;64592;52.168;21.040;2024-01-16T13:02:22;1.35;;;0.93;;
75912;SDS011;64592;52.168;21.040;2024-01-16T13:07:25;4.72;;;1.92;;
75912;SDS011;64592;52.168;21.040;2024-01-16T13:12:27;5.53;;;2.38;;
75912;SDS011;64592;52.168;21.040;2024-01-16T13:17:34;6.00;;;2.58;;
75912;SDS011;64592;52.168;21.040;2024-01-16T13:22:36;3.05;;;1.70;;
75912;SDS011;64592;52.168;21.040;2024-01-16T13:27:38;2.70;;;1.98;;
75912;SDS011;64592;52.168;21.040;2024-01-16T13:37:42;2.78;;;1.73;;
75912;SDS011;64592;52.168;21.040;2024-01-16T13:47:47;3.17;;;1.73;;
75912;SDS011;64592;52.168;21.040;2024-01-16T13:52:48;4.75;;;1.75;;
75912;SDS011;64592;52.168;21.040;2024-01-16T13:57:51;3.03;;;1.52;;
75912;SDS011;64592;52.168;21.040;2024-01-16T14:07:55;5.88;;;2.20;;
75912;SDS011;64592;52.168;21.040;2024-01-16T14:12:57;2.30;;;1.52;;
75912;SDS011;64592;52.168;21.040;2024-01-16T14:18:00;1.17;;;1.00;;
75912;SDS011;64592;52.168;21.040;2024-01-16T14:23:03;4.03;;;1.73;;
75912;SDS011;64592;52.168;21.040;2024-01-16T14:28:04;3.60;;;2.10;;
75912;SDS011;64592;52.168;21.040;2024-01-16T14:33:08;1.23;;;0.75;;
75912;SDS011;64592;52.168;21.040;2024-01-16T14:38:10;3.10;;;1.45;;
75912;SDS011;64592;52.168;21.040;2024-01-16T14:43:14;4.25;;;2.28;;
75912;SDS011;64592;52.168;21.040;2024-01-16T14:48:17;2.70;;;1.73;;
75912;SDS011;64592;52.168;21.040;2024-01-16T14:53:19;2.78;;;1.83;;
75912;SDS011;64592;52.168;21.040;2024-01-16T14:58:21;5.10;;;2.22;;
75912;SDS011;64592;52.168;21.040;2024-01-16T15:03:24;2.58;;;1.63;;
75912;SDS011;64592;52.168;21.040;2024-01-16T15:08:26;4.50;;;2.38;;
75912;SDS011;64592;52.168;21.040;2024-01-16T15:13:28;2.95;;;2.10;;
75912;SDS011;64592;52.168;21.040;2024-01-16T15:18:31;6.95;;;2.25;;
75912;SDS011;64592;52.168;21.040;2024-01-16T15:23:33;4.22;;;2.50;;
75912;SDS011;64592;52.168;21.040;2024-01-16T15:28:34;3.60;;;1.83;;
75912;SDS011;64592;52.168;21.040;2024-01-16T15:33:37;4.22;;;2.00;;
75912;SDS011;64592;52.168;21.040;2024-01-16T15:38:39;9.82;;;2.97;;
75912;SDS011;64592;52.168;21.040;2024-01-16T15:43:41;9.88;;;1.98;;
75912;SDS011;64592;52.168;21.040;2024-01-16T15:48:44;2.60;;;1.83;;
75912;SDS011;64592;52.168;21.040;2024-01-16T15:53:45;5.28;;;3.00;;
75912;SDS011;64592;52.168;21.040;2024-01-16T15:58:47;5.70;;;3.08;;
75912;SDS011;64592;52.168;21.040;2024-01-16T16:03:51;6.82;;;2.47;;
75912;SDS011;64592;52.168;21.040;2024-01-16T16:08:52;3.35;;;2.53;;
75912;SDS011;64592;52.168;21.040;2024-01-16T16:13:54;5.57;;;1.85;;
75912;SDS011;64592;52.168;21.040;2024-01-16T16:18:57;4.95;;;2.03;;
75912;SDS011;64592;52.168;21.040;2024-01-16T16:23:59;6.80;;;4.00;;
75912;SDS011;64592;52.168;21.040;2024-01-16T16:29:00;5.72;;;3.03;;
75912;SDS011;64592;52.168;21.040;2024-01-16T16:34:04;5.00;;;2.88;;
75912;SDS011;64592;52.168;21.040;2024-01-16T16:39:07;4.50;;;2.70;;
75912;SDS011;64592;52.168;21.040;2024-01-16T16:44:09;4.13;;;3.38;;
75912;SDS011;64592;52.168;21.040;2024-01-16T16:54:13;4.53;;;2.70;;
75912;SDS011;64592;52.168;21.040;2024-01-16T16:59:15;5.30;;;3.28;;
75912;SDS011;64592;52.168;21.040;2024-01-16T17:04:18;4.78;;;2.55;;
75912;SDS011;64592;52.168;21.040;2024-01-16T17:09:20;6.57;;;3.70;;
75912;SDS011;64592;52.168;21.040;2024-01-16T17:14:21;7.72;;;3.10;;
75912;SDS011;64592;52.168;21.040;2024-01-16T17:19:24;8.32;;;4.80;;
75912;SDS011;64592;52.168;21.040;2024-01-16T17:24:26;11.57;;;4.18;;
75912;SDS011;64592;52.168;21.040;2024-01-16T17:29:28;5.75;;;2.95;;
75912;SDS011;64592;52.168;21.040;2024-01-16T17:34:31;12.15;;;5.57;;
75912;SDS011;64592;52.168;21.040;2024-01-16T17:39:32;12.20;;;5.15;;
75912;SDS011;64592;52.168;21.040;2024-01-16T17:44:41;6.88;;;4.30;;
75912;SDS011;64592;52.168;21.040;2024-01-16T17:49:48;4.97;;;3.72;;
75912;SDS011;64592;52.168;21.040;2024-01-16T17:54:50;8.18;;;4.72;;
75912;SDS011;64592;52.168;21.040;2024-01-16T17:59:52;4.10;;;3.35;;
75912;SDS011;64592;52.168;21.040;2024-01-16T18:04:55;9.35;;;5.40;;
75912;SDS011;64592;52.168;21.040;2024-01-16T18:09:56;8.70;;;4.63;;
75912;SDS011;64592;52.168;21.040;2024-01-16T18:14:59;14.15;;;6.35;;
75912;SDS011;64592;52.168;21.040;2024-01-16T18:20:02;6.75;;;4.22;;
75912;SDS011;64592;52.168;21.040;2024-01-16T18:25:07;6.10;;;2.78;;
75912;SDS011;64592;52.168;21.040;2024-01-16T18:30:10;8.68;;;4.78;;
75912;SDS011;64592;52.168;21.040;2024-01-16T18:35:16;11.07;;;4.78;;
75912;SDS011;64592;52.168;21.040;2024-01-16T18:40:18;9.90;;;5.72;;
75912;SDS011;64592;52.168;21.040;2024-01-16T18:45:21;9.38;;;5.82;;
75912;SDS011;64592;52.168;21.040;2024-01-16T18:50:24;7.57;;;5.00;;
75912;SDS011;64592;52.168;21.040;2024-01-16T18:55:26;8.23;;;4.90;;
75912;SDS011;64592;52.168;21.040;2024-01-16T19:00:28;14.80;;;4.95;;
75912;SDS011;64592;52.168;21.040;2024-01-16T19:05:31;4.28;;;3.40;;
75912;SDS011;64592;52.168;21.040;2024-01-16T19:10:34;9.65;;;4.13;;
75912;SDS011;64592;52.168;21.040;2024-01-16T19:15:36;7.50;;;4.45;;
75912;SDS011;64592;52.168;21.040;2024-01-16T19:20:39;7.25;;;5.00;;
75912;SDS011;64592;52.168;21.040;2024-01-16T19:25:40;11.18;;;5.43;;
75912;SDS011;64592;52.168;21.040;2024-01-16T19:30:42;11.32;;;7.22;;
75912;SDS011;64592;52.168;21.040;2024-01-16T19:35:45;11.20;;;7.05;;
75912;SDS011;64592;52.168;21.040;2024-01-16T19:40:48;10.70;;;5.82;;
75912;SDS011;64592;52.168;21.040;2024-01-16T19:45:50;9.45;;;5.72;;
75912;SDS011;64592;52.168;21.040;2024-01-16T19:55:55;15.38;;;7.53;;
75912;SDS011;64592;52.168;21.040;2024-01-16T20:00:59;11.15;;;5.75;;
75912;SDS011;64592;52.168;21.040;2024-01-16T20:06:04;11.80;;;7.25;;
75912;SDS011;64592;52.168;21.040;2024-01-16T20:11:06;6.40;;;4.90;;
75912;SDS011;64592;52.168;21.040;2024-01-16T20:21:10;9.45;;;4.93;;
75912;SDS011;64592;52.168;21.040;2024-01-16T20:26:12;4.50;;;3.75;;
75912;SDS011;64592;52.168;21.040;2024-01-16T20:31:14;16.70;;;7.20;;
75912;SDS011;64592;52.168;21.040;2024-01-16T20:36:17;9.13;;;5.88;;
75912;SDS011;64592;52.168;21.040;2024-01-16T20:41:20;7.50;;;6.00;;
75912;SDS011;64592;52.168;21.040;2024-01-16T20:46:22;12.50;;;6.43;;
75912;SDS011;64592;52.168;21.040;2024-01-16T20:51:25;9.70;;;6.78;;
75912;SDS011;64592;52.168;21.040;2024-01-16T20:56:28;10.35;;;6.80;;
75912;SDS011;64592;52.168;21.040;2024-01-16T21:01:30;10.45;;;7.28;;
75912;SDS011;64592;52.168;21.040;2024-01-16T21:06:33;17.02;;;8.30;;
75912;SDS011;64592;52.168;21.040;2024-01-16T21:11:35;19.90;;;9.95;;
75912;SDS011;64592;52.168;21.040;2024-01-16T21:16:37;11.88;;;7.47;;
75912;SDS011;64592;52.168;21.040;2024-01-16T21:21:42;17.75;;;7.72;;
75912;SDS011;64592;52.168;21.040;2024-01-16T21:26:44;14.23;;;8.88;;
75912;SDS011;64592;52.168;21.040;2024-01-16T21:31:46;14.63;;;6.97;;
75912;SDS011;64592;52.168;21.040;2024-01-16T21:36:51;12.18;;;7.28;;
75912;SDS011;64592;52.168;21.040;2024-01-16T21:41:54;17.75;;;9.27;;
75912;SDS011;64592;52.168;21.040;2024-01-16T21:46:56;18.13;;;10.10;;
75912;SDS011;64592;52.168;21.040;2024-01-16T21:51:59;9.38;;;6.95;;
75912;SDS011;64592;52.168;21.040;2024-01-16T21:57:02;15.95;;;9.20;;
75912;SDS011;64592;52.168;21.040;2024-01-16T22:02:04;30.25;;;9.70;;
75912;SDS011;64592;52.168;21.040;2024-01-16T22:07:07;19.52;;;10.82;;
75912;SDS011;64592;52.168;21.040;2024-01-16T22:12:09;17.05;;;9.00;;
75912;SDS011;64592;52.168;21.040;2024-01-16T22:17:10;18.60;;;9.32;;
75912;SDS011;64592;52.168;21.040;2024-01-16T22:22:14;13.93;;;7.75;;
75912;SDS011;64592;52.168;21.040;2024-01-16T22:27:16;19.30;;;8.35;;
75912;SDS011;64592;52.168;21.040;2024-01-16T22:32:18;14.57;;;8.77;;
75912;SDS011;64592;52.168;21.040;2024-01-16T22:37:23;23.77;;;10.40;;
75912;SDS011;64592;52.168;21.040;2024-01-16T22:42:30;16.35;;;9.25;;
75912;SDS011;64592;52.168;21.040;2024-01-16T22:47:32;11.77;;;7.93;;
75912;SDS011;64592;52.168;21.040;2024-01-16T22:52:36;15.70;;;8.80;;
75912;SDS011;64592;52.168;21.040;2024-01-16T22:57:38;21.08;;;11.05;;
75912;SDS011;64592;52.168;21.040;2024-01-16T23:02:39;10.98;;;7.05;;
75912;SDS011;64592;52.168;21.040;2024-01-16T23:07:42;13.25;;;8.70;;
75912;SDS011;64592;52.168;21.040;2024-01-16T23:12:45;24.83;;;10.60;;
75912;SDS011;64592;52.168;21.040;2024-01-16T23:17:46;16.13;;;8.48;;
75912;SDS011;64592;52.168;21.040;2024-01-16T23:22:50;18.38;;;9.43;;
75912;SDS011;64592;52.168;21.040;2024-01-16T23:27:51;22.33;;;10.77;;
75912;SDS011;64592;52.168;21.040;2024-01-16T23:32:53;15.38;;;8.15;;
75912;SDS011;64592;52.168;21.040;2024-01-16T23:37:56;20.23;;;11.95;;
75912;SDS011;64592;52.168;21.040;2024-01-16T23:42:59;16.88;;;11.10;;
75912;SDS011;64592;52.168;21.040;2024-01-16T23:48:00;18.70;;;10.50;;
75912;SDS011;64592;52.168;21.040;2024-01-16T23:53:05;25.98;;;12.75;;
75912;SDS011;64592;52.168;21.040;2024-01-16T23:58:07;25.85;;;11.93;;
